sensor_id;sensor_type;location;lat;lon;timestamp;temperature;humidity
25360;DHT22;13311;51.386;0.016;2023-02-19T00:03:06;13.90;94.70
25360;DHT22;13311;51.386;0.016;2023-02-19T00:08:06;13.80;94.80
25360;DHT22;13311;51.386;0.016;2023-02-19T00:13:07;13.70;95.00
25360;DHT22;13311;51.386;0.016;2023-02-19T00:18:08;13.70;95.20
25360;DHT22;13311;51.386;0.016;2023-02-19T00:23:09;13.70;95.00
25360;DHT22;13311;51.386;0.016;2023-02-19T00:28:09;13.60;95.10
25360;DHT22;13311;51.386;0.016;2023-02-19T00:33:10;13.60;95.10
25360;DHT22;13311;51.386;0.016;2023-02-19T00:38:11;13.80;95.30
25360;DHT22;13311;51.386;0.016;2023-02-19T00:43:11;13.70;95.20
25360;DHT22;13311;51.386;0.016;2023-02-19T00:48:12;13.70;95.20
25360;DHT22;13311;51.386;0.016;2023-02-19T00:53:13;13.80;95.40
25360;DHT22;13311;51.386;0.016;2023-02-19T00:58:13;13.80;95.10
25360;DHT22;13311;51.386;0.016;2023-02-19T01:03:14;13.70;94.90
25360;DHT22;13311;51.386;0.016;2023-02-19T01:08:15;13.70;95.10
25360;DHT22;13311;51.386;0.016;2023-02-19T01:13:16;13.70;95.00
25360;DHT22;13311;51.386;0.016;2023-02-19T01:18:17;13.70;95.20
25360;DHT22;13311;51.386;0.016;2023-02-19T01:23:17;13.70;95.10
25360;DHT22;13311;51.386;0.016;2023-02-19T01:28:18;13.60;95.20
25360;DHT22;13311;51.386;0.016;2023-02-19T01:33:19;13.50;95.20
25360;DHT22;13311;51.386;0.016;2023-02-19T01:38:20;13.60;95.20
25360;DHT22;13311;51.386;0.016;2023-02-19T01:43:20;13.60;95.30
25360;DHT22;13311;51.386;0.016;2023-02-19T01:48:34;13.60;95.50
25360;DHT22;13311;51.386;0.016;2023-02-19T01:53:40;13.70;95.30
25360;DHT22;13311;51.386;0.016;2023-02-19T01:58:41;13.50;95.10
25360;DHT22;13311;51.386;0.016;2023-02-19T02:03:45;13.60;95.20
25360;DHT22;13311;51.386;0.016;2023-02-19T02:08:54;13.50;94.90
25360;DHT22;13311;51.386;0.016;2023-02-19T02:14:16;13.30;95.00
25360;DHT22;13311;51.386;0.016;2023-02-19T02:31:03;13.20;94.90
25360;DHT22;13311;51.386;0.016;2023-02-19T02:36:17;13.20;95.30
25360;DHT22;13311;51.386;0.016;2023-02-19T02:41:20;13.10;95.10
25360;DHT22;13311;51.386;0.016;2023-02-19T02:46:26;13.00;95.10
25360;DHT22;13311;51.386;0.016;2023-02-19T02:51:38;12.90;95.30
25360;DHT22;13311;51.386;0.016;2023-02-19T02:56:42;12.70;95.50
25360;DHT22;13311;51.386;0.016;2023-02-19T03:02:02;12.60;95.50
25360;DHT22;13311;51.386;0.016;2023-02-19T03:07:11;12.50;95.60
25360;DHT22;13311;51.386;0.016;2023-02-19T03:12:14;12.40;95.60
25360;DHT22;13311;51.386;0.016;2023-02-19T03:17:48;12.50;95.60
25360;DHT22;13311;51.386;0.016;2023-02-19T03:23:10;12.50;95.60
25360;DHT22;13311;51.386;0.016;2023-02-19T03:28:14;12.50;95.70
25360;DHT22;13311;51.386;0.016;2023-02-19T03:33:22;12.70;95.70
25360;DHT22;13311;51.386;0.016;2023-02-19T03:44:26;12.90;95.50
25360;DHT22;13311;51.386;0.016;2023-02-19T03:50:12;12.80;95.40
25360;DHT22;13311;51.386;0.016;2023-02-19T03:55:34;12.90;95.60
25360;DHT22;13311;51.386;0.016;2023-02-19T04:01:15;12.80;94.90
25360;DHT22;13311;51.386;0.016;2023-02-19T04:06:28;12.80;94.80
25360;DHT22;13311;51.386;0.016;2023-02-19T04:11:30;12.70;95.10
25360;DHT22;13311;51.386;0.016;2023-02-19T04:16:34;12.70;94.90
25360;DHT22;13311;51.386;0.016;2023-02-19T04:21:37;12.60;95.10
25360;DHT22;13311;51.386;0.016;2023-02-19T04:26:40;12.70;95.30
25360;DHT22;13311;51.386;0.016;2023-02-19T04:31:42;12.60;94.70
25360;DHT22;13311;51.386;0.016;2023-02-19T04:36:42;12.50;95.00
25360;DHT22;13311;51.386;0.016;2023-02-19T04:41:44;12.50;94.60
25360;DHT22;13311;51.386;0.016;2023-02-19T04:46:45;12.60;94.80
25360;DHT22;13311;51.386;0.016;2023-02-19T04:51:45;12.70;94.80
25360;DHT22;13311;51.386;0.016;2023-02-19T04:56:46;12.80;94.80
25360;DHT22;13311;51.386;0.016;2023-02-19T05:01:47;12.80;94.40
25360;DHT22;13311;51.386;0.016;2023-02-19T05:06:47;12.90;94.10
25360;DHT22;13311;51.386;0.016;2023-02-19T05:11:48;12.80;94.40
25360;DHT22;13311;51.386;0.016;2023-02-19T05:16:49;12.80;94.00
25360;DHT22;13311;51.386;0.016;2023-02-19T05:21:49;12.80;93.90
25360;DHT22;13311;51.386;0.016;2023-02-19T05:26:50;12.80;93.80
25360;DHT22;13311;51.386;0.016;2023-02-19T05:31:51;13.00;94.20
25360;DHT22;13311;51.386;0.016;2023-02-19T05:36:51;13.00;93.60
25360;DHT22;13311;51.386;0.016;2023-02-19T05:41:52;13.00;93.20
25360;DHT22;13311;51.386;0.016;2023-02-19T05:46:53;12.90;93.10
25360;DHT22;13311;51.386;0.016;2023-02-19T05:51:54;12.90;93.00
25360;DHT22;13311;51.386;0.016;2023-02-19T05:56:54;12.60;93.20
25360;DHT22;13311;51.386;0.016;2023-02-19T06:01:55;12.60;93.30
25360;DHT22;13311;51.386;0.016;2023-02-19T06:06:57;12.60;93.50
25360;DHT22;13311;51.386;0.016;2023-02-19T06:11:58;12.60;93.40
25360;DHT22;13311;51.386;0.016;2023-02-19T06:16:58;12.40;93.30
25360;DHT22;13311;51.386;0.016;2023-02-19T06:21:59;12.20;93.40
25360;DHT22;13311;51.386;0.016;2023-02-19T06:27:00;12.30;94.20
25360;DHT22;13311;51.386;0.016;2023-02-19T06:32:00;12.30;93.60
25360;DHT22;13311;51.386;0.016;2023-02-19T06:37:01;12.20;93.70
25360;DHT22;13311;51.386;0.016;2023-02-19T06:42:02;12.20;93.60
25360;DHT22;13311;51.386;0.016;2023-02-19T06:47:03;12.10;93.80
25360;DHT22;13311;51.386;0.016;2023-02-19T06:52:04;12.00;94.00
25360;DHT22;13311;51.386;0.016;2023-02-19T06:57:05;11.90;94.00
25360;DHT22;13311;51.386;0.016;2023-02-19T07:02:06;11.90;94.00
25360;DHT22;13311;51.386;0.016;2023-02-19T07:07:10;11.90;94.10
25360;DHT22;13311;51.386;0.016;2023-02-19T07:12:11;11.90;94.10
25360;DHT22;13311;51.386;0.016;2023-02-19T07:17:12;11.90;94.00
25360;DHT22;13311;51.386;0.016;2023-02-19T07:22:13;11.80;94.20
25360;DHT22;13311;51.386;0.016;2023-02-19T07:27:13;11.90;94.20
25360;DHT22;13311;51.386;0.016;2023-02-19T07:32:14;11.80;94.30
25360;DHT22;13311;51.386;0.016;2023-02-19T07:37:15;11.70;94.40
25360;DHT22;13311;51.386;0.016;2023-02-19T07:42:15;11.80;94.40
25360;DHT22;13311;51.386;0.016;2023-02-19T07:47:16;11.80;94.30
25360;DHT22;13311;51.386;0.016;2023-02-19T07:52:17;11.80;94.40
25360;DHT22;13311;51.386;0.016;2023-02-19T07:57:18;11.90;94.30
25360;DHT22;13311;51.386;0.016;2023-02-19T08:02:19;12.00;94.30
25360;DHT22;13311;51.386;0.016;2023-02-19T08:07:39;12.10;94.20
25360;DHT22;13311;51.386;0.016;2023-02-19T08:12:40;12.30;94.20
25360;DHT22;13311;51.386;0.016;2023-02-19T08:18:07;12.30;93.90
25360;DHT22;13311;51.386;0.016;2023-02-19T08:23:09;12.30;93.70
25360;DHT22;13311;51.386;0.016;2023-02-19T08:28:11;12.40;93.60
25360;DHT22;13311;51.386;0.016;2023-02-19T08:33:17;12.40;93.60
25360;DHT22;13311;51.386;0.016;2023-02-19T08:38:20;12.20;93.60
25360;DHT22;13311;51.386;0.016;2023-02-19T08:43:21;12.40;93.70
25360;DHT22;13311;51.386;0.016;2023-02-19T08:48:21;12.40;93.60
25360;DHT22;13311;51.386;0.016;2023-02-19T08:53:23;12.50;93.60
25360;DHT22;13311;51.386;0.016;2023-02-19T08:58:24;12.40;93.50
25360;DHT22;13311;51.386;0.016;2023-02-19T09:03:25;12.50;93.50
25360;DHT22;13311;51.386;0.016;2023-02-19T09:08:26;12.40;93.60
25360;DHT22;13311;51.386;0.016;2023-02-19T09:13:27;12.50;93.70
25360;DHT22;13311;51.386;0.016;2023-02-19T09:18:27;12.60;93.60
25360;DHT22;13311;51.386;0.016;2023-02-19T09:23:28;13.00;93.20
25360;DHT22;13311;51.386;0.016;2023-02-19T09:28:29;13.10;93.40
25360;DHT22;13311;51.386;0.016;2023-02-19T09:33:30;13.40;93.30
25360;DHT22;13311;51.386;0.016;2023-02-19T09:38:31;13.70;92.90
25360;DHT22;13311;51.386;0.016;2023-02-19T09:43:32;14.20;92.60
25360;DHT22;13311;51.386;0.016;2023-02-19T09:48:33;14.60;92.10
25360;DHT22;13311;51.386;0.016;2023-02-19T09:53:40;14.90;91.20
25360;DHT22;13311;51.386;0.016;2023-02-19T09:58:56;15.10;90.50
25360;DHT22;13311;51.386;0.016;2023-02-19T10:03:57;15.50;90.40
25360;DHT22;13311;51.386;0.016;2023-02-19T10:09:23;15.70;90.50
25360;DHT22;13311;51.386;0.016;2023-02-19T10:14:35;15.80;90.30
25360;DHT22;13311;51.386;0.016;2023-02-19T10:19:38;15.80;89.70
25360;DHT22;13311;51.386;0.016;2023-02-19T10:24:41;15.90;90.00
25360;DHT22;13311;51.386;0.016;2023-02-19T10:29:44;16.00;89.80
25360;DHT22;13311;51.386;0.016;2023-02-19T10:34:46;16.20;89.70
25360;DHT22;13311;51.386;0.016;2023-02-19T10:39:48;16.40;89.60
25360;DHT22;13311;51.386;0.016;2023-02-19T10:44:53;16.30;85.70
25360;DHT22;13311;51.386;0.016;2023-02-19T10:49:59;16.30;84.20
25360;DHT22;13311;51.386;0.016;2023-02-19T10:55:28;16.20;88.40
25360;DHT22;13311;51.386;0.016;2023-02-19T11:00:33;16.30;86.10
25360;DHT22;13311;51.386;0.016;2023-02-19T11:05:35;16.40;86.00
25360;DHT22;13311;51.386;0.016;2023-02-19T11:10:41;16.60;87.10
25360;DHT22;13311;51.386;0.016;2023-02-19T11:15:42;16.60;87.60
25360;DHT22;13311;51.386;0.016;2023-02-19T11:20:52;16.40;84.60
25360;DHT22;13311;51.386;0.016;2023-02-19T11:26:03;16.40;85.10
25360;DHT22;13311;51.386;0.016;2023-02-19T11:31:26;16.50;85.30
25360;DHT22;13311;51.386;0.016;2023-02-19T11:36:33;16.40;84.20
25360;DHT22;13311;51.386;0.016;2023-02-19T11:42:38;16.40;87.60
25360;DHT22;13311;51.386;0.016;2023-02-19T12:09:34;16.80;82.90
25360;DHT22;13311;51.386;0.016;2023-02-19T12:26:07;17.30;79.30
25360;DHT22;13311;51.386;0.016;2023-02-19T12:31:51;17.40;85.20
25360;DHT22;13311;51.386;0.016;2023-02-19T12:48:09;17.50;85.40
25360;DHT22;13311;51.386;0.016;2023-02-19T12:53:38;17.40;79.50
25360;DHT22;13311;51.386;0.016;2023-02-19T12:58:54;17.40;75.30
25360;DHT22;13311;51.386;0.016;2023-02-19T13:09:21;17.50;77.30
25360;DHT22;13311;51.386;0.016;2023-02-19T13:14:41;17.30;74.40
25360;DHT22;13311;51.386;0.016;2023-02-19T13:19:46;17.30;76.90
25360;DHT22;13311;51.386;0.016;2023-02-19T13:24:48;17.30;80.40
25360;DHT22;13311;51.386;0.016;2023-02-19T13:40:58;17.20;77.30
25360;DHT22;13311;51.386;0.016;2023-02-19T13:46:03;17.00;75.60
25360;DHT22;13311;51.386;0.016;2023-02-19T14:02:20;17.30;77.90
25360;DHT22;13311;51.386;0.016;2023-02-19T14:12:17;17.30;74.90
25360;DHT22;13311;51.386;0.016;2023-02-19T14:17:39;17.40;79.20
25360;DHT22;13311;51.386;0.016;2023-02-19T14:27:58;17.20;77.50
25360;DHT22;13311;51.386;0.016;2023-02-19T14:33:01;17.10;77.90
25360;DHT22;13311;51.386;0.016;2023-02-19T14:38:03;17.10;77.70
25360;DHT22;13311;51.386;0.016;2023-02-19T14:43:05;17.10;78.50
25360;DHT22;13311;51.386;0.016;2023-02-19T14:48:36;17.10;77.40
25360;DHT22;13311;51.386;0.016;2023-02-19T14:53:41;17.10;78.30
25360;DHT22;13311;51.386;0.016;2023-02-19T14:58:43;17.00;77.80
25360;DHT22;13311;51.386;0.016;2023-02-19T15:03:48;16.80;78.90
25360;DHT22;13311;51.386;0.016;2023-02-19T15:08:52;16.90;80.70
25360;DHT22;13311;51.386;0.016;2023-02-19T15:14:01;16.90;82.60
25360;DHT22;13311;51.386;0.016;2023-02-19T15:19:08;16.80;80.50
25360;DHT22;13311;51.386;0.016;2023-02-19T15:24:10;16.80;80.60
25360;DHT22;13311;51.386;0.016;2023-02-19T15:29:16;16.70;82.70
25360;DHT22;13311;51.386;0.016;2023-02-19T15:39:25;16.60;82.20
25360;DHT22;13311;51.386;0.016;2023-02-19T15:44:52;16.40;81.50
25360;DHT22;13311;51.386;0.016;2023-02-19T15:50:23;16.30;81.80
25360;DHT22;13311;51.386;0.016;2023-02-19T15:55:34;16.30;82.40
25360;DHT22;13311;51.386;0.016;2023-02-19T16:00:40;16.30;81.60
25360;DHT22;13311;51.386;0.016;2023-02-19T16:05:46;16.20;82.30
25360;DHT22;13311;51.386;0.016;2023-02-19T16:11:05;16.10;82.40
25360;DHT22;13311;51.386;0.016;2023-02-19T16:16:34;16.10;82.80
25360;DHT22;13311;51.386;0.016;2023-02-19T16:21:38;16.10;83.60
25360;DHT22;13311;51.386;0.016;2023-02-19T16:26:44;16.10;82.90
25360;DHT22;13311;51.386;0.016;2023-02-19T16:31:54;16.00;82.90
25360;DHT22;13311;51.386;0.016;2023-02-19T16:36:56;16.00;82.20
25360;DHT22;13311;51.386;0.016;2023-02-19T16:47:39;15.80;81.20
25360;DHT22;13311;51.386;0.016;2023-02-19T16:52:57;15.80;81.10
25360;DHT22;13311;51.386;0.016;2023-02-19T16:58:00;15.60;81.50
25360;DHT22;13311;51.386;0.016;2023-02-19T17:03:03;15.50;81.90
25360;DHT22;13311;51.386;0.016;2023-02-19T17:08:31;15.40;82.50
25360;DHT22;13311;51.386;0.016;2023-02-19T17:13:43;15.30;83.00
25360;DHT22;13311;51.386;0.016;2023-02-19T17:18:48;15.20;83.30
25360;DHT22;13311;51.386;0.016;2023-02-19T17:23:49;15.00;83.90
25360;DHT22;13311;51.386;0.016;2023-02-19T17:28:50;14.90;84.60
25360;DHT22;13311;51.386;0.016;2023-02-19T17:33:51;14.80;85.00
25360;DHT22;13311;51.386;0.016;2023-02-19T17:38:53;14.70;85.70
25360;DHT22;13311;51.386;0.016;2023-02-19T17:43:54;14.60;86.20
25360;DHT22;13311;51.386;0.016;2023-02-19T17:48:54;14.50;86.40
25360;DHT22;13311;51.386;0.016;2023-02-19T17:53:55;14.30;86.80
25360;DHT22;13311;51.386;0.016;2023-02-19T17:58:57;14.20;87.10
25360;DHT22;13311;51.386;0.016;2023-02-19T18:03:57;14.20;87.50
25360;DHT22;13311;51.386;0.016;2023-02-19T18:08:58;14.10;87.80
25360;DHT22;13311;51.386;0.016;2023-02-19T18:13:59;14.00;88.00
25360;DHT22;13311;51.386;0.016;2023-02-19T18:18:59;13.90;88.20
25360;DHT22;13311;51.386;0.016;2023-02-19T18:24:01;13.80;88.50
25360;DHT22;13311;51.386;0.016;2023-02-19T18:29:04;13.70;88.90
25360;DHT22;13311;51.386;0.016;2023-02-19T18:34:05;13.60;89.10
25360;DHT22;13311;51.386;0.016;2023-02-19T18:39:05;13.50;90.10
25360;DHT22;13311;51.386;0.016;2023-02-19T18:44:06;13.40;90.50
25360;DHT22;13311;51.386;0.016;2023-02-19T18:49:07;13.30;91.00
25360;DHT22;13311;51.386;0.016;2023-02-19T18:54:07;13.20;91.50
25360;DHT22;13311;51.386;0.016;2023-02-19T18:59:08;13.20;92.00
25360;DHT22;13311;51.386;0.016;2023-02-19T19:04:09;13.10;92.40
25360;DHT22;13311;51.386;0.016;2023-02-19T19:09:10;13.10;92.70
25360;DHT22;13311;51.386;0.016;2023-02-19T19:14:11;13.10;92.90
25360;DHT22;13311;51.386;0.016;2023-02-19T19:19:13;13.00;92.90
25360;DHT22;13311;51.386;0.016;2023-02-19T19:24:14;12.90;93.10
25360;DHT22;13311;51.386;0.016;2023-02-19T19:29:16;13.00;93.20
25360;DHT22;13311;51.386;0.016;2023-02-19T19:34:18;12.90;93.20
25360;DHT22;13311;51.386;0.016;2023-02-19T19:39:19;12.90;93.20
25360;DHT22;13311;51.386;0.016;2023-02-19T19:44:20;12.90;93.30
25360;DHT22;13311;51.386;0.016;2023-02-19T19:49:22;12.90;93.50
25360;DHT22;13311;51.386;0.016;2023-02-19T19:54:22;12.90;93.60
25360;DHT22;13311;51.386;0.016;2023-02-19T19:59:23;12.70;94.20
25360;DHT22;13311;51.386;0.016;2023-02-19T20:04:25;12.60;93.90
25360;DHT22;13311;51.386;0.016;2023-02-19T20:09:25;12.50;94.10
25360;DHT22;13311;51.386;0.016;2023-02-19T20:14:28;12.40;94.20
25360;DHT22;13311;51.386;0.016;2023-02-19T20:19:29;12.30;94.30
25360;DHT22;13311;51.386;0.016;2023-02-19T20:24:29;12.30;94.30
25360;DHT22;13311;51.386;0.016;2023-02-19T20:29:32;12.20;94.50
25360;DHT22;13311;51.386;0.016;2023-02-19T20:34:33;12.20;94.50
25360;DHT22;13311;51.386;0.016;2023-02-19T20:39:34;12.10;94.60
25360;DHT22;13311;51.386;0.016;2023-02-19T20:44:35;12.00;94.60
25360;DHT22;13311;51.386;0.016;2023-02-19T20:49:36;12.00;94.70
25360;DHT22;13311;51.386;0.016;2023-02-19T20:54:36;11.90;94.70
25360;DHT22;13311;51.386;0.016;2023-02-19T20:59:37;11.90;94.80
25360;DHT22;13311;51.386;0.016;2023-02-19T21:04:40;12.00;94.90
25360;DHT22;13311;51.386;0.016;2023-02-19T21:09:40;12.00;94.80
25360;DHT22;13311;51.386;0.016;2023-02-19T21:14:41;12.00;94.90
25360;DHT22;13311;51.386;0.016;2023-02-19T21:19:42;12.00;95.00
25360;DHT22;13311;51.386;0.016;2023-02-19T21:24:43;11.90;95.10
25360;DHT22;13311;51.386;0.016;2023-02-19T21:29:45;11.90;95.20
25360;DHT22;13311;51.386;0.016;2023-02-19T21:34:46;11.90;95.30
25360;DHT22;13311;51.386;0.016;2023-02-19T21:39:46;11.90;95.40
25360;DHT22;13311;51.386;0.016;2023-02-19T21:44:47;11.90;95.40
25360;DHT22;13311;51.386;0.016;2023-02-19T21:49:48;11.90;95.50
25360;DHT22;13311;51.386;0.016;2023-02-19T21:54:48;11.90;95.40
25360;DHT22;13311;51.386;0.016;2023-02-19T21:59:49;11.80;95.40
25360;DHT22;13311;51.386;0.016;2023-02-19T22:04:51;11.80;95.50
25360;DHT22;13311;51.386;0.016;2023-02-19T22:09:55;11.70;95.60
25360;DHT22;13311;51.386;0.016;2023-02-19T22:14:56;11.70;95.70
25360;DHT22;13311;51.386;0.016;2023-02-19T22:19:56;11.70;95.60
25360;DHT22;13311;51.386;0.016;2023-02-19T22:24:57;11.70;95.60
25360;DHT22;13311;51.386;0.016;2023-02-19T22:29:58;11.60;95.70
25360;DHT22;13311;51.386;0.016;2023-02-19T22:34:58;11.50;95.80
25360;DHT22;13311;51.386;0.016;2023-02-19T22:39:59;11.50;95.90
25360;DHT22;13311;51.386;0.016;2023-02-19T22:45:00;11.40;95.90
25360;DHT22;13311;51.386;0.016;2023-02-19T22:50:01;11.40;95.90
25360;DHT22;13311;51.386;0.016;2023-02-19T22:55:01;11.40;96.00
25360;DHT22;13311;51.386;0.016;2023-02-19T23:00:06;11.50;95.80
25360;DHT22;13311;51.386;0.016;2023-02-19T23:05:08;11.70;95.50
25360;DHT22;13311;51.386;0.016;2023-02-19T23:10:09;11.70;95.40
25360;DHT22;13311;51.386;0.016;2023-02-19T23:15:12;11.70;95.40
25360;DHT22;13311;51.386;0.016;2023-02-19T23:20:13;11.70;95.40
25360;DHT22;13311;51.386;0.016;2023-02-19T23:25:13;11.60;95.20
25360;DHT22;13311;51.386;0.016;2023-02-19T23:30:14;11.60;95.20
25360;DHT22;13311;51.386;0.016;2023-02-19T23:35:16;11.60;95.30
25360;DHT22;13311;51.386;0.016;2023-02-19T23:40:17;11.80;94.60
25360;DHT22;13311;51.386;0.016;2023-02-19T23:45:18;11.70;94.70
25360;DHT22;13311;51.386;0.016;2023-02-19T23:50:19;11.50;94.90
25360;DHT22;13311;51.386;0.016;2023-02-19T23:55:19;11.40;95.10
